sensor_id;sensor_type;location;lat;lon;timestamp;P1;durP1;ratioP1;P2;durP2;ratioP2
9722;SDS011;4900;49.306;8.500;2023-02-28T00:00:20;3.47;;;2.67;;
9722;SDS011;4900;49.306;8.500;2023-02-28T00:02:46;5.57;;;3.10;;
9722;SDS011;4900;49.306;8.500;2023-02-28T00:05:13;4.10;;;2.67;;
9722;SDS011;4900;49.306;8.500;2023-02-28T00:07:40;3.57;;;2.60;;
9722;SDS011;4900;49.306;8.500;2023-02-28T00:10:07;3.83;;;2.90;;
9722;SDS011;4900;49.306;8.500;2023-02-28T00:12:36;3.70;;;3.00;;
9722;SDS011;4900;49.306;8.500;2023-02-28T00:15:04;2.97;;;2.60;;
9722;SDS011;4900;49.306;8.500;2023-02-28T00:17:31;3.60;;;3.00;;
9722;SDS011;4900;49.306;8.500;2023-02-28T00:19:56;3.73;;;2.50;;
9722;SDS011;4900;49.306;8.500;2023-02-28T00:22:29;3.33;;;2.70;;
9722;SDS011;4900;49.306;8.500;2023-02-28T00:24:55;3.33;;;2.57;;
9722;SDS011;4900;49.306;8.500;2023-02-28T00:27:21;3.93;;;2.77;;
9722;SDS011;4900;49.306;8.500;2023-02-28T00:29:47;3.40;;;2.90;;
9722;SDS011;4900;49.306;8.500;2023-02-28T00:32:13;3.33;;;2.47;;
9722;SDS011;4900;49.306;8.500;2023-02-28T00:34:38;3.20;;;2.90;;
9722;SDS011;4900;49.306;8.500;2023-02-28T00:37:05;3.57;;;2.70;;
9722;SDS011;4900;49.306;8.500;2023-02-28T00:39:31;3.00;;;2.43;;
9722;SDS011;4900;49.306;8.500;2023-02-28T00:41:57;3.43;;;2.83;;
9722;SDS011;4900;49.306;8.500;2023-02-28T00:44:23;3.87;;;2.80;;
9722;SDS011;4900;49.306;8.500;2023-02-28T00:46:48;6.20;;;2.93;;
9722;SDS011;4900;49.306;8.500;2023-02-28T00:49:14;3.67;;;3.00;;
9722;SDS011;4900;49.306;8.500;2023-02-28T00:51:39;3.03;;;2.60;;
9722;SDS011;4900;49.306;8.500;2023-02-28T00:54:05;3.30;;;2.90;;
9722;SDS011;4900;49.306;8.500;2023-02-28T00:56:30;4.67;;;3.07;;
9722;SDS011;4900;49.306;8.500;2023-02-28T00:58:56;3.73;;;2.90;;
9722;SDS011;4900;49.306;8.500;2023-02-28T01:01:21;3.27;;;2.87;;
9722;SDS011;4900;49.306;8.500;2023-02-28T01:03:47;4.70;;;2.83;;
9722;SDS011;4900;49.306;8.500;2023-02-28T01:06:12;3.00;;;2.60;;
9722;SDS011;4900;49.306;8.500;2023-02-28T01:08:38;4.27;;;2.90;;
9722;SDS011;4900;49.306;8.500;2023-02-28T01:11:07;3.77;;;3.07;;
9722;SDS011;4900;49.306;8.500;2023-02-28T01:13:35;4.07;;;2.70;;
9722;SDS011;4900;49.306;8.500;2023-02-28T01:16:01;4.50;;;3.10;;
9722;SDS011;4900;49.306;8.500;2023-02-28T01:18:27;4.37;;;2.77;;
9722;SDS011;4900;49.306;8.500;2023-02-28T01:20:53;4.97;;;3.13;;
9722;SDS011;4900;49.306;8.500;2023-02-28T01:23:20;4.13;;;3.20;;
9722;SDS011;4900;49.306;8.500;2023-02-28T01:25:48;5.63;;;3.07;;
9722;SDS011;4900;49.306;8.500;2023-02-28T01:28:14;4.40;;;3.17;;
9722;SDS011;4900;49.306;8.500;2023-02-28T01:30:40;4.57;;;3.20;;
9722;SDS011;4900;49.306;8.500;2023-02-28T01:33:05;6.27;;;3.30;;
9722;SDS011;4900;49.306;8.500;2023-02-28T01:35:34;4.40;;;3.00;;
9722;SDS011;4900;49.306;8.500;2023-02-28T01:38:01;4.80;;;3.23;;
9722;SDS011;4900;49.306;8.500;2023-02-28T01:40:27;4.30;;;2.87;;
9722;SDS011;4900;49.306;8.500;2023-02-28T01:42:52;4.20;;;3.10;;
9722;SDS011;4900;49.306;8.500;2023-02-28T01:45:20;3.87;;;3.00;;
9722;SDS011;4900;49.306;8.500;2023-02-28T01:48:01;3.47;;;2.93;;
9722;SDS011;4900;49.306;8.500;2023-02-28T01:50:31;3.40;;;2.70;;
9722;SDS011;4900;49.306;8.500;2023-02-28T01:53:02;3.13;;;2.80;;
9722;SDS011;4900;49.306;8.500;2023-02-28T01:55:30;4.20;;;3.30;;
9722;SDS011;4900;49.306;8.500;2023-02-28T01:57:58;4.30;;;2.90;;
9722;SDS011;4900;49.306;8.500;2023-02-28T02:00:27;3.77;;;2.97;;
9722;SDS011;4900;49.306;8.500;2023-02-28T02:03:16;3.73;;;3.10;;
9722;SDS011;4900;49.306;8.500;2023-02-28T02:05:44;5.40;;;3.33;;
9722;SDS011;4900;49.306;8.500;2023-02-28T02:08:13;3.87;;;3.10;;
9722;SDS011;4900;49.306;8.500;2023-02-28T02:10:44;4.53;;;3.00;;
9722;SDS011;4900;49.306;8.500;2023-02-28T02:16:27;3.83;;;2.90;;
9722;SDS011;4900;49.306;8.500;2023-02-28T02:22:12;5.40;;;3.30;;
9722;SDS011;4900;49.306;8.500;2023-02-28T02:41:17;4.43;;;3.33;;
9722;SDS011;4900;49.306;8.500;2023-02-28T02:44:05;5.17;;;3.70;;
9722;SDS011;4900;49.306;8.500;2023-02-28T02:46:37;5.30;;;3.67;;
9722;SDS011;4900;49.306;8.500;2023-02-28T02:49:07;4.87;;;3.27;;
9722;SDS011;4900;49.306;8.500;2023-02-28T02:51:36;4.63;;;3.53;;
9722;SDS011;4900;49.306;8.500;2023-02-28T02:54:11;6.67;;;4.00;;
9722;SDS011;4900;49.306;8.500;2023-02-28T02:56:42;5.23;;;3.57;;
9722;SDS011;4900;49.306;8.500;2023-02-28T02:59:11;4.50;;;3.57;;
9722;SDS011;4900;49.306;8.500;2023-02-28T03:01:40;5.77;;;3.60;;
9722;SDS011;4900;49.306;8.500;2023-02-28T03:04:13;5.87;;;4.03;;
9722;SDS011;4900;49.306;8.500;2023-02-28T03:06:43;5.63;;;3.83;;
9722;SDS011;4900;49.306;8.500;2023-02-28T03:09:08;4.30;;;3.83;;
9722;SDS011;4900;49.306;8.500;2023-02-28T03:11:34;4.67;;;3.33;;
9722;SDS011;4900;49.306;8.500;2023-02-28T03:14:10;5.30;;;3.53;;
9722;SDS011;4900;49.306;8.500;2023-02-28T03:17:08;4.50;;;3.37;;
9722;SDS011;4900;49.306;8.500;2023-02-28T03:19:47;4.23;;;3.33;;
9722;SDS011;4900;49.306;8.500;2023-02-28T03:25:19;4.90;;;3.50;;
9722;SDS011;4900;49.306;8.500;2023-02-28T03:28:19;5.90;;;3.63;;
9722;SDS011;4900;49.306;8.500;2023-02-28T03:31:15;4.90;;;3.83;;
9722;SDS011;4900;49.306;8.500;2023-02-28T03:34:05;4.87;;;3.67;;
9722;SDS011;4900;49.306;8.500;2023-02-28T03:36:48;5.20;;;3.83;;
9722;SDS011;4900;49.306;8.500;2023-02-28T03:39:19;4.80;;;3.80;;
9722;SDS011;4900;49.306;8.500;2023-02-28T03:41:52;5.17;;;4.07;;
9722;SDS011;4900;49.306;8.500;2023-02-28T03:44:24;5.67;;;3.77;;
9722;SDS011;4900;49.306;8.500;2023-02-28T03:46:57;4.83;;;3.83;;
9722;SDS011;4900;49.306;8.500;2023-02-28T03:49:30;5.30;;;3.87;;
9722;SDS011;4900;49.306;8.500;2023-02-28T03:52:06;5.00;;;3.90;;
9722;SDS011;4900;49.306;8.500;2023-02-28T03:54:34;6.20;;;4.23;;
9722;SDS011;4900;49.306;8.500;2023-02-28T03:59:56;5.90;;;4.10;;
9722;SDS011;4900;49.306;8.500;2023-02-28T04:02:29;5.33;;;3.70;;
9722;SDS011;4900;49.306;8.500;2023-02-28T04:04:54;5.13;;;3.90;;
9722;SDS011;4900;49.306;8.500;2023-02-28T04:07:20;5.77;;;4.33;;
9722;SDS011;4900;49.306;8.500;2023-02-28T04:09:46;5.13;;;3.90;;
9722;SDS011;4900;49.306;8.500;2023-02-28T04:12:11;5.93;;;4.47;;
9722;SDS011;4900;49.306;8.500;2023-02-28T04:14:37;5.77;;;4.47;;
9722;SDS011;4900;49.306;8.500;2023-02-28T04:17:02;6.30;;;4.37;;
9722;SDS011;4900;49.306;8.500;2023-02-28T04:19:28;5.43;;;4.27;;
9722;SDS011;4900;49.306;8.500;2023-02-28T04:21:53;5.77;;;4.33;;
9722;SDS011;4900;49.306;8.500;2023-02-28T04:24:26;5.53;;;4.20;;
9722;SDS011;4900;49.306;8.500;2023-02-28T04:26:53;6.83;;;4.60;;
9722;SDS011;4900;49.306;8.500;2023-02-28T04:29:21;6.27;;;4.40;;
9722;SDS011;4900;49.306;8.500;2023-02-28T04:31:49;7.77;;;4.57;;
9722;SDS011;4900;49.306;8.500;2023-02-28T04:34:14;7.70;;;4.63;;
9722;SDS011;4900;49.306;8.500;2023-02-28T04:36:40;6.57;;;4.80;;
9722;SDS011;4900;49.306;8.500;2023-02-28T04:39:06;7.37;;;4.70;;
9722;SDS011;4900;49.306;8.500;2023-02-28T04:41:31;7.53;;;5.17;;
9722;SDS011;4900;49.306;8.500;2023-02-28T04:43:57;6.87;;;5.20;;
9722;SDS011;4900;49.306;8.500;2023-02-28T04:46:22;7.53;;;5.10;;
9722;SDS011;4900;49.306;8.500;2023-02-28T04:48:48;6.50;;;5.07;;
9722;SDS011;4900;49.306;8.500;2023-02-28T04:51:15;6.50;;;5.30;;
9722;SDS011;4900;49.306;8.500;2023-02-28T04:53:42;8.07;;;5.67;;
9722;SDS011;4900;49.306;8.500;2023-02-28T04:56:10;7.90;;;5.47;;
9722;SDS011;4900;49.306;8.500;2023-02-28T04:58:37;7.40;;;5.40;;
9722;SDS011;4900;49.306;8.500;2023-02-28T05:01:06;9.00;;;5.40;;
9722;SDS011;4900;49.306;8.500;2023-02-28T05:03:41;7.40;;;5.00;;
9722;SDS011;4900;49.306;8.500;2023-02-28T05:06:07;8.33;;;5.43;;
9722;SDS011;4900;49.306;8.500;2023-02-28T05:08:33;7.00;;;4.57;;
9722;SDS011;4900;49.306;8.500;2023-02-28T05:10:59;9.07;;;5.67;;
9722;SDS011;4900;49.306;8.500;2023-02-28T05:13:28;6.57;;;5.10;;
9722;SDS011;4900;49.306;8.500;2023-02-28T05:15:54;7.50;;;5.67;;
9722;SDS011;4900;49.306;8.500;2023-02-28T05:18:20;6.93;;;5.23;;
9722;SDS011;4900;49.306;8.500;2023-02-28T05:20:46;7.03;;;4.63;;
9722;SDS011;4900;49.306;8.500;2023-02-28T05:23:12;8.23;;;5.17;;
9722;SDS011;4900;49.306;8.500;2023-02-28T05:25:38;7.00;;;5.60;;
9722;SDS011;4900;49.306;8.500;2023-02-28T05:28:04;6.73;;;5.07;;
9722;SDS011;4900;49.306;8.500;2023-02-28T05:30:30;7.70;;;5.50;;
9722;SDS011;4900;49.306;8.500;2023-02-28T05:32:56;6.73;;;5.27;;
9722;SDS011;4900;49.306;8.500;2023-02-28T05:35:22;6.07;;;4.70;;
9722;SDS011;4900;49.306;8.500;2023-02-28T05:37:49;7.77;;;5.20;;
9722;SDS011;4900;49.306;8.500;2023-02-28T05:40:15;7.67;;;5.10;;
9722;SDS011;4900;49.306;8.500;2023-02-28T05:42:41;7.33;;;5.47;;
9722;SDS011;4900;49.306;8.500;2023-02-28T05:45:07;9.10;;;5.70;;
9722;SDS011;4900;49.306;8.500;2023-02-28T05:47:33;8.03;;;5.10;;
9722;SDS011;4900;49.306;8.500;2023-02-28T05:49:59;7.90;;;5.73;;
9722;SDS011;4900;49.306;8.500;2023-02-28T05:52:26;7.33;;;5.13;;
9722;SDS011;4900;49.306;8.500;2023-02-28T05:54:52;6.67;;;5.20;;
9722;SDS011;4900;49.306;8.500;2023-02-28T05:57:17;8.10;;;5.67;;
9722;SDS011;4900;49.306;8.500;2023-02-28T05:59:43;9.13;;;5.87;;
9722;SDS011;4900;49.306;8.500;2023-02-28T06:02:10;7.67;;;5.30;;
9722;SDS011;4900;49.306;8.500;2023-02-28T06:04:37;6.17;;;5.23;;
9722;SDS011;4900;49.306;8.500;2023-02-28T06:07:03;6.87;;;5.13;;
9722;SDS011;4900;49.306;8.500;2023-02-28T06:09:28;8.80;;;5.23;;
9722;SDS011;4900;49.306;8.500;2023-02-28T06:11:54;7.73;;;5.30;;
9722;SDS011;4900;49.306;8.500;2023-02-28T06:14:22;7.23;;;4.93;;
9722;SDS011;4900;49.306;8.500;2023-02-28T06:16:47;7.07;;;5.37;;
9722;SDS011;4900;49.306;8.500;2023-02-28T06:19:13;7.00;;;5.10;;
9722;SDS011;4900;49.306;8.500;2023-02-28T06:21:40;7.20;;;4.87;;
9722;SDS011;4900;49.306;8.500;2023-02-28T06:24:05;7.10;;;5.07;;
9722;SDS011;4900;49.306;8.500;2023-02-28T06:26:31;7.60;;;4.93;;
9722;SDS011;4900;49.306;8.500;2023-02-28T06:28:56;8.13;;;5.40;;
9722;SDS011;4900;49.306;8.500;2023-02-28T06:31:22;6.53;;;4.63;;
9722;SDS011;4900;49.306;8.500;2023-02-28T06:33:48;8.33;;;5.33;;
9722;SDS011;4900;49.306;8.500;2023-02-28T06:36:14;7.23;;;4.80;;
9722;SDS011;4900;49.306;8.500;2023-02-28T06:38:41;6.87;;;5.10;;
9722;SDS011;4900;49.306;8.500;2023-02-28T06:41:07;5.70;;;5.00;;
9722;SDS011;4900;49.306;8.500;2023-02-28T06:43:34;6.57;;;4.93;;
9722;SDS011;4900;49.306;8.500;2023-02-28T06:46:02;7.13;;;4.70;;
9722;SDS011;4900;49.306;8.500;2023-02-28T06:48:29;6.30;;;4.63;;
9722;SDS011;4900;49.306;8.500;2023-02-28T06:51:02;7.37;;;4.70;;
9722;SDS011;4900;49.306;8.500;2023-02-28T06:53:31;7.63;;;5.33;;
9722;SDS011;4900;49.306;8.500;2023-02-28T06:55:56;6.70;;;4.80;;
9722;SDS011;4900;49.306;8.500;2023-02-28T06:58:22;8.47;;;5.20;;
9722;SDS011;4900;49.306;8.500;2023-02-28T07:00:50;6.63;;;5.00;;
9722;SDS011;4900;49.306;8.500;2023-02-28T07:03:16;7.20;;;4.93;;
9722;SDS011;4900;49.306;8.500;2023-02-28T07:05:43;6.97;;;5.40;;
9722;SDS011;4900;49.306;8.500;2023-02-28T07:08:09;7.57;;;5.23;;
9722;SDS011;4900;49.306;8.500;2023-02-28T07:10:36;6.53;;;4.83;;
9722;SDS011;4900;49.306;8.500;2023-02-28T07:13:03;6.53;;;4.83;;
9722;SDS011;4900;49.306;8.500;2023-02-28T07:15:29;6.60;;;4.87;;
9722;SDS011;4900;49.306;8.500;2023-02-28T07:17:54;6.63;;;5.07;;
9722;SDS011;4900;49.306;8.500;2023-02-28T07:20:21;6.13;;;5.07;;
9722;SDS011;4900;49.306;8.500;2023-02-28T07:22:47;7.00;;;5.13;;
9722;SDS011;4900;49.306;8.500;2023-02-28T07:25:20;8.83;;;5.50;;
9722;SDS011;4900;49.306;8.500;2023-02-28T07:27:46;7.20;;;5.50;;
9722;SDS011;4900;49.306;8.500;2023-02-28T07:30:12;6.47;;;5.00;;
9722;SDS011;4900;49.306;8.500;2023-02-28T07:32:38;9.17;;;5.80;;
9722;SDS011;4900;49.306;8.500;2023-02-28T07:35:03;7.50;;;5.03;;
9722;SDS011;4900;49.306;8.500;2023-02-28T07:37:29;6.57;;;5.30;;
9722;SDS011;4900;49.306;8.500;2023-02-28T07:39:56;7.60;;;5.63;;
9722;SDS011;4900;49.306;8.500;2023-02-28T07:42:22;6.37;;;4.97;;
9722;SDS011;4900;49.306;8.500;2023-02-28T07:44:47;7.10;;;5.40;;
9722;SDS011;4900;49.306;8.500;2023-02-28T07:47:14;6.43;;;4.80;;
9722;SDS011;4900;49.306;8.500;2023-02-28T07:49:39;6.57;;;5.20;;
9722;SDS011;4900;49.306;8.500;2023-02-28T07:52:05;8.27;;;5.60;;
9722;SDS011;4900;49.306;8.500;2023-02-28T07:54:32;7.23;;;5.40;;
9722;SDS011;4900;49.306;8.500;2023-02-28T07:56:58;8.13;;;5.90;;
9722;SDS011;4900;49.306;8.500;2023-02-28T07:59:24;7.43;;;5.60;;
9722;SDS011;4900;49.306;8.500;2023-02-28T08:01:49;5.87;;;4.90;;
9722;SDS011;4900;49.306;8.500;2023-02-28T08:04:16;7.27;;;5.53;;
9722;SDS011;4900;49.306;8.500;2023-02-28T08:06:42;7.87;;;6.00;;
9722;SDS011;4900;49.306;8.500;2023-02-28T08:09:08;7.27;;;5.70;;
9722;SDS011;4900;49.306;8.500;2023-02-28T08:11:34;8.47;;;5.47;;
9722;SDS011;4900;49.306;8.500;2023-02-28T08:13:59;6.00;;;5.40;;
9722;SDS011;4900;49.306;8.500;2023-02-28T08:16:25;8.70;;;6.00;;
9722;SDS011;4900;49.306;8.500;2023-02-28T08:18:51;8.13;;;5.90;;
9722;SDS011;4900;49.306;8.500;2023-02-28T08:21:18;7.97;;;6.10;;
9722;SDS011;4900;49.306;8.500;2023-02-28T08:23:46;7.97;;;6.30;;
9722;SDS011;4900;49.306;8.500;2023-02-28T08:26:13;8.27;;;6.43;;
9722;SDS011;4900;49.306;8.500;2023-02-28T08:28:39;7.80;;;5.87;;
9722;SDS011;4900;49.306;8.500;2023-02-28T08:31:09;8.07;;;6.20;;
9722;SDS011;4900;49.306;8.500;2023-02-28T08:33:36;8.67;;;6.33;;
9722;SDS011;4900;49.306;8.500;2023-02-28T08:36:02;8.27;;;6.37;;
9722;SDS011;4900;49.306;8.500;2023-02-28T08:38:27;6.97;;;5.80;;
9722;SDS011;4900;49.306;8.500;2023-02-28T08:41:00;7.63;;;6.00;;
9722;SDS011;4900;49.306;8.500;2023-02-28T08:43:31;7.40;;;5.87;;
9722;SDS011;4900;49.306;8.500;2023-02-28T08:45:56;8.37;;;5.93;;
9722;SDS011;4900;49.306;8.500;2023-02-28T08:48:23;7.30;;;6.27;;
9722;SDS011;4900;49.306;8.500;2023-02-28T08:50:56;7.57;;;5.97;;
9722;SDS011;4900;49.306;8.500;2023-02-28T08:53:22;6.83;;;5.97;;
9722;SDS011;4900;49.306;8.500;2023-02-28T08:55:55;8.07;;;6.20;;
9722;SDS011;4900;49.306;8.500;2023-02-28T08:58:25;6.43;;;5.63;;
9722;SDS011;4900;49.306;8.500;2023-02-28T09:00:51;7.37;;;5.97;;
9722;SDS011;4900;49.306;8.500;2023-02-28T09:03:17;7.83;;;6.20;;
9722;SDS011;4900;49.306;8.500;2023-02-28T09:05:52;6.83;;;5.77;;
9722;SDS011;4900;49.306;8.500;2023-02-28T09:08:22;8.90;;;6.20;;
9722;SDS011;4900;49.306;8.500;2023-02-28T09:10:48;7.70;;;5.60;;
9722;SDS011;4900;49.306;8.500;2023-02-28T09:13:14;7.07;;;5.97;;
9722;SDS011;4900;49.306;8.500;2023-02-28T09:15:39;6.43;;;5.57;;
9722;SDS011;4900;49.306;8.500;2023-02-28T09:18:05;7.87;;;6.20;;
9722;SDS011;4900;49.306;8.500;2023-02-28T09:20:31;7.83;;;6.20;;
9722;SDS011;4900;49.306;8.500;2023-02-28T09:22:56;6.10;;;5.50;;
9722;SDS011;4900;49.306;8.500;2023-02-28T09:25:21;7.47;;;5.80;;
9722;SDS011;4900;49.306;8.500;2023-02-28T09:27:47;9.57;;;6.63;;
9722;SDS011;4900;49.306;8.500;2023-02-28T09:30:13;7.47;;;6.17;;
9722;SDS011;4900;49.306;8.500;2023-02-28T09:32:39;9.17;;;6.23;;
9722;SDS011;4900;49.306;8.500;2023-02-28T09:35:05;7.80;;;5.90;;
9722;SDS011;4900;49.306;8.500;2023-02-28T09:37:30;6.67;;;5.50;;
9722;SDS011;4900;49.306;8.500;2023-02-28T09:39:56;7.07;;;5.80;;
9722;SDS011;4900;49.306;8.500;2023-02-28T09:42:25;6.27;;;5.40;;
9722;SDS011;4900;49.306;8.500;2023-02-28T09:44:57;7.73;;;6.07;;
9722;SDS011;4900;49.306;8.500;2023-02-28T09:47:32;8.00;;;6.17;;
9722;SDS011;4900;49.306;8.500;2023-02-28T09:52:51;6.97;;;5.50;;
9722;SDS011;4900;49.306;8.500;2023-02-28T09:55:20;7.50;;;6.17;;
9722;SDS011;4900;49.306;8.500;2023-02-28T09:57:46;6.63;;;5.70;;
9722;SDS011;4900;49.306;8.500;2023-02-28T10:00:18;6.97;;;5.80;;
9722;SDS011;4900;49.306;8.500;2023-02-28T10:08:33;11.15;;;6.10;;
9722;SDS011;4900;49.306;8.500;2023-02-28T10:11:08;6.68;;;5.70;;
9722;SDS011;4900;49.306;8.500;2023-02-28T10:16:43;6.32;;;5.55;;
9722;SDS011;4900;49.306;8.500;2023-02-28T10:24:39;6.90;;;6.13;;
9722;SDS011;4900;49.306;8.500;2023-02-28T10:27:15;7.82;;;6.60;;
9722;SDS011;4900;49.306;8.500;2023-02-28T10:29:45;7.57;;;6.38;;
9722;SDS011;4900;49.306;8.500;2023-02-28T10:32:15;7.00;;;6.30;;
9722;SDS011;4900;49.306;8.500;2023-02-28T10:34:43;7.88;;;6.45;;
9722;SDS011;4900;49.306;8.500;2023-02-28T10:37:10;7.22;;;6.50;;
9722;SDS011;4900;49.306;8.500;2023-02-28T10:39:46;8.25;;;6.50;;
9722;SDS011;4900;49.306;8.500;2023-02-28T10:42:45;6.78;;;6.10;;
9722;SDS011;4900;49.306;8.500;2023-02-28T10:45:10;6.97;;;6.30;;
9722;SDS011;4900;49.306;8.500;2023-02-28T10:47:57;6.80;;;6.10;;
9722;SDS011;4900;49.306;8.500;2023-02-28T10:50:30;9.85;;;6.93;;
9722;SDS011;4900;49.306;8.500;2023-02-28T10:58:29;9.10;;;6.50;;
9722;SDS011;4900;49.306;8.500;2023-02-28T11:01:11;7.05;;;6.30;;
9722;SDS011;4900;49.306;8.500;2023-02-28T11:03:39;6.93;;;6.32;;
9722;SDS011;4900;49.306;8.500;2023-02-28T11:06:05;8.30;;;6.72;;
9722;SDS011;4900;49.306;8.500;2023-02-28T11:08:33;10.85;;;7.97;;
9722;SDS011;4900;49.306;8.500;2023-02-28T11:11:01;7.95;;;6.60;;
9722;SDS011;4900;49.306;8.500;2023-02-28T11:13:34;7.03;;;6.18;;
9722;SDS011;4900;49.306;8.500;2023-02-28T11:16:04;6.95;;;6.13;;
9722;SDS011;4900;49.306;8.500;2023-02-28T11:21:09;9.65;;;7.10;;
9722;SDS011;4900;49.306;8.500;2023-02-28T11:23:36;8.45;;;7.07;;
9722;SDS011;4900;49.306;8.500;2023-02-28T11:26:06;10.55;;;7.07;;
9722;SDS011;4900;49.306;8.500;2023-02-28T11:28:35;8.45;;;6.75;;
9722;SDS011;4900;49.306;8.500;2023-02-28T11:31:14;9.57;;;6.95;;
9722;SDS011;4900;49.306;8.500;2023-02-28T11:33:49;7.85;;;7.00;;
9722;SDS011;4900;49.306;8.500;2023-02-28T11:36:30;8.30;;;7.45;;
9722;SDS011;4900;49.306;8.500;2023-02-28T11:38:58;8.20;;;7.00;;
9722;SDS011;4900;49.306;8.500;2023-02-28T11:46:58;8.13;;;7.30;;
9722;SDS011;4900;49.306;8.500;2023-02-28T11:49:33;8.00;;;7.20;;
9722;SDS011;4900;49.306;8.500;2023-02-28T11:57:42;7.80;;;7.00;;
9722;SDS011;4900;49.306;8.500;2023-02-28T12:02:59;8.20;;;7.30;;
9722;SDS011;4900;49.306;8.500;2023-02-28T12:05:45;8.45;;;7.35;;
9722;SDS011;4900;49.306;8.500;2023-02-28T12:11:16;8.20;;;7.40;;
9722;SDS011;4900;49.306;8.500;2023-02-28T12:22:18;9.13;;;6.80;;
9722;SDS011;4900;49.306;8.500;2023-02-28T12:27:41;8.43;;;7.53;;
9722;SDS011;4900;49.306;8.500;2023-02-28T12:32:44;7.95;;;7.10;;
9722;SDS011;4900;49.306;8.500;2023-02-28T12:35:15;9.02;;;8.15;;
9722;SDS011;4900;49.306;8.500;2023-02-28T12:37:47;8.30;;;7.50;;
9722;SDS011;4900;49.306;8.500;2023-02-28T12:40:21;8.35;;;7.43;;
9722;SDS011;4900;49.306;8.500;2023-02-28T12:42:49;8.35;;;7.45;;
9722;SDS011;4900;49.306;8.500;2023-02-28T12:45:36;8.95;;;7.70;;
9722;SDS011;4900;49.306;8.500;2023-02-28T12:48:08;8.25;;;7.18;;
9722;SDS011;4900;49.306;8.500;2023-02-28T12:50:39;9.55;;;8.18;;
9722;SDS011;4900;49.306;8.500;2023-02-28T12:53:06;8.02;;;6.82;;
9722;SDS011;4900;49.306;8.500;2023-02-28T12:55:57;8.30;;;7.50;;
9722;SDS011;4900;49.306;8.500;2023-02-28T13:04:14;8.48;;;7.40;;
9722;SDS011;4900;49.306;8.500;2023-02-28T13:09:17;8.25;;;7.38;;
9722;SDS011;4900;49.306;8.500;2023-02-28T13:19:37;9.18;;;7.63;;
9722;SDS011;4900;49.306;8.500;2023-02-28T13:22:20;9.15;;;7.38;;
9722;SDS011;4900;49.306;8.500;2023-02-28T13:27:54;9.30;;;8.40;;
9722;SDS011;4900;49.306;8.500;2023-02-28T13:33:27;9.48;;;7.45;;
9722;SDS011;4900;49.306;8.500;2023-02-28T13:38:44;8.60;;;7.80;;
9722;SDS011;4900;49.306;8.500;2023-02-28T13:46:34;8.75;;;7.68;;
9722;SDS011;4900;49.306;8.500;2023-02-28T14:05:29;8.82;;;7.40;;
9722;SDS011;4900;49.306;8.500;2023-02-28T14:07:58;9.93;;;7.57;;
9722;SDS011;4900;49.306;8.500;2023-02-28T14:10:28;8.85;;;7.35;;
9722;SDS011;4900;49.306;8.500;2023-02-28T14:15:34;8.70;;;7.72;;
9722;SDS011;4900;49.306;8.500;2023-02-28T14:20:47;8.60;;;7.70;;
9722;SDS011;4900;49.306;8.500;2023-02-28T14:31:31;8.07;;;7.28;;
9722;SDS011;4900;49.306;8.500;2023-02-28T14:36:57;8.77;;;7.88;;
9722;SDS011;4900;49.306;8.500;2023-02-28T14:39:25;7.38;;;6.68;;
9722;SDS011;4900;49.306;8.500;2023-02-28T14:41:52;8.52;;;7.60;;
9722;SDS011;4900;49.306;8.500;2023-02-28T14:44:20;9.43;;;8.43;;
9722;SDS011;4900;49.306;8.500;2023-02-28T14:47:11;8.68;;;7.78;;
9722;SDS011;4900;49.306;8.500;2023-02-28T14:49:43;7.65;;;6.85;;
9722;SDS011;4900;49.306;8.500;2023-02-28T14:54:42;9.05;;;8.13;;
9722;SDS011;4900;49.306;8.500;2023-02-28T15:02:41;8.10;;;7.30;;
9722;SDS011;4900;49.306;8.500;2023-02-28T15:07:43;8.68;;;7.78;;
9722;SDS011;4900;49.306;8.500;2023-02-28T15:10:20;8.75;;;7.95;;
9722;SDS011;4900;49.306;8.500;2023-02-28T15:12:56;9.30;;;8.30;;
9722;SDS011;4900;49.306;8.500;2023-02-28T15:21:03;8.60;;;7.70;;
9722;SDS011;4900;49.306;8.500;2023-02-28T15:23:32;9.18;;;8.27;;
9722;SDS011;4900;49.306;8.500;2023-02-28T15:26:01;8.40;;;7.60;;
9722;SDS011;4900;49.306;8.500;2023-02-28T15:28:27;9.05;;;8.15;;
9722;SDS011;4900;49.306;8.500;2023-02-28T15:31:03;10.02;;;9.02;;
9722;SDS011;4900;49.306;8.500;2023-02-28T15:33:51;8.80;;;7.90;;
9722;SDS011;4900;49.306;8.500;2023-02-28T15:36:24;9.20;;;8.30;;
9722;SDS011;4900;49.306;8.500;2023-02-28T15:38:52;8.80;;;7.80;;
9722;SDS011;4900;49.306;8.500;2023-02-28T15:41:36;9.63;;;8.40;;
9722;SDS011;4900;49.306;8.500;2023-02-28T15:44:24;8.32;;;6.97;;
9722;SDS011;4900;49.306;8.500;2023-02-28T15:49:53;8.90;;;8.00;;
9722;SDS011;4900;49.306;8.500;2023-02-28T15:54:56;8.80;;;7.82;;
9722;SDS011;4900;49.306;8.500;2023-02-28T15:57:27;9.00;;;8.07;;
9722;SDS011;4900;49.306;8.500;2023-02-28T15:59:55;9.57;;;7.90;;
9722;SDS011;4900;49.306;8.500;2023-02-28T16:02:32;9.10;;;8.20;;
9722;SDS011;4900;49.306;8.500;2023-02-28T16:07:31;9.73;;;7.97;;
9722;SDS011;4900;49.306;8.500;2023-02-28T16:09:58;9.05;;;7.60;;
9722;SDS011;4900;49.306;8.500;2023-02-28T16:12:25;9.80;;;8.00;;
9722;SDS011;4900;49.306;8.500;2023-02-28T16:14:53;10.07;;;7.75;;
9722;SDS011;4900;49.306;8.500;2023-02-28T16:17:24;10.00;;;7.50;;
9722;SDS011;4900;49.306;8.500;2023-02-28T16:19:52;8.88;;;7.45;;
9722;SDS011;4900;49.306;8.500;2023-02-28T16:22:18;8.13;;;7.32;;
9722;SDS011;4900;49.306;8.500;2023-02-28T16:24:44;7.95;;;7.15;;
9722;SDS011;4900;49.306;8.500;2023-02-28T16:27:20;8.32;;;7.43;;
9722;SDS011;4900;49.306;8.500;2023-02-28T16:29:51;8.45;;;7.03;;
9722;SDS011;4900;49.306;8.500;2023-02-28T16:32:18;8.25;;;7.10;;
9722;SDS011;4900;49.306;8.500;2023-02-28T16:34:43;9.25;;;7.72;;
9722;SDS011;4900;49.306;8.500;2023-02-28T16:37:13;9.07;;;7.35;;
9722;SDS011;4900;49.306;8.500;2023-02-28T16:39:41;8.45;;;7.20;;
9722;SDS011;4900;49.306;8.500;2023-02-28T16:42:21;10.60;;;7.30;;
9722;SDS011;4900;49.306;8.500;2023-02-28T16:44:50;8.40;;;7.50;;
9722;SDS011;4900;49.306;8.500;2023-02-28T16:47:16;8.27;;;7.40;;
9722;SDS011;4900;49.306;8.500;2023-02-28T16:49:42;8.97;;;7.87;;
9722;SDS011;4900;49.306;8.500;2023-02-28T16:52:08;7.80;;;6.93;;
9722;SDS011;4900;49.306;8.500;2023-02-28T16:54:34;9.70;;;7.80;;
9722;SDS011;4900;49.306;8.500;2023-02-28T16:57:00;10.30;;;7.50;;
9722;SDS011;4900;49.306;8.500;2023-02-28T16:59:26;9.67;;;7.30;;
9722;SDS011;4900;49.306;8.500;2023-02-28T17:01:54;9.23;;;7.37;;
9722;SDS011;4900;49.306;8.500;2023-02-28T17:04:21;9.83;;;7.47;;
9722;SDS011;4900;49.306;8.500;2023-02-28T17:06:47;8.30;;;7.20;;
9722;SDS011;4900;49.306;8.500;2023-02-28T17:09:20;9.00;;;7.03;;
9722;SDS011;4900;49.306;8.500;2023-02-28T17:11:47;9.60;;;7.07;;
9722;SDS011;4900;49.306;8.500;2023-02-28T17:14:14;8.17;;;6.90;;
9722;SDS011;4900;49.306;8.500;2023-02-28T17:16:39;9.10;;;7.67;;
9722;SDS011;4900;49.306;8.500;2023-02-28T17:19:09;9.67;;;7.80;;
9722;SDS011;4900;49.306;8.500;2023-02-28T17:21:38;10.30;;;7.97;;
9722;SDS011;4900;49.306;8.500;2023-02-28T17:24:06;9.23;;;7.37;;
9722;SDS011;4900;49.306;8.500;2023-02-28T17:26:32;9.50;;;7.60;;
9722;SDS011;4900;49.306;8.500;2023-02-28T17:28:58;10.27;;;7.57;;
9722;SDS011;4900;49.306;8.500;2023-02-28T17:31:24;9.53;;;7.53;;
9722;SDS011;4900;49.306;8.500;2023-02-28T17:33:51;9.27;;;7.57;;
9722;SDS011;4900;49.306;8.500;2023-02-28T17:36:20;10.07;;;7.40;;
9722;SDS011;4900;49.306;8.500;2023-02-28T17:38:49;9.63;;;7.63;;
9722;SDS011;4900;49.306;8.500;2023-02-28T17:41:15;11.50;;;8.00;;
9722;SDS011;4900;49.306;8.500;2023-02-28T17:43:40;9.53;;;6.93;;
9722;SDS011;4900;49.306;8.500;2023-02-28T17:46:09;8.90;;;7.00;;
9722;SDS011;4900;49.306;8.500;2023-02-28T17:48:41;10.43;;;7.90;;
9722;SDS011;4900;49.306;8.500;2023-02-28T17:51:08;11.20;;;8.07;;
9722;SDS011;4900;49.306;8.500;2023-02-28T17:53:36;10.97;;;7.93;;
9722;SDS011;4900;49.306;8.500;2023-02-28T17:56:02;12.00;;;8.53;;
9722;SDS011;4900;49.306;8.500;2023-02-28T17:58:27;11.27;;;8.13;;
9722;SDS011;4900;49.306;8.500;2023-02-28T18:00:53;10.57;;;7.60;;
9722;SDS011;4900;49.306;8.500;2023-02-28T18:03:19;11.63;;;8.57;;
9722;SDS011;4900;49.306;8.500;2023-02-28T18:05:46;9.17;;;7.30;;
9722;SDS011;4900;49.306;8.500;2023-02-28T18:08:11;10.87;;;7.57;;
9722;SDS011;4900;49.306;8.500;2023-02-28T18:10:38;10.70;;;7.67;;
9722;SDS011;4900;49.306;8.500;2023-02-28T18:13:04;10.87;;;8.13;;
9722;SDS011;4900;49.306;8.500;2023-02-28T18:15:29;9.60;;;7.20;;
9722;SDS011;4900;49.306;8.500;2023-02-28T18:17:55;12.03;;;8.20;;